Time;durP1;ratioP1;P1;durP2;ratioP2;P2;SDS_P1;SDS_P2;PMS_P1;PMS_P2;Temp;Humidity;BMP_temperature;BMP_pressure;BME280_temperature;BME280_humidity;BME280_pressure;Samples;Min_cycle;Max_cycle;Signal;HPM_P1;HPM_P2
2023/08/08 00:02:20;;;;;;;1.67;1.00;;;;;;;15.57;61.81;100369.81;5442851;32;34606;-72
2023/08/08 00:05:22;;;;;;;1.27;0.80;;;;;;;16.35;59.44;100364.16;5441743;32;35534;-69
2023/08/08 00:08:25;;;;;;;1.12;0.68;;;;;;;16.10;59.80;100371.03;5418474;32;33982;-72
2023/08/08 00:11:28;;;;;;;1.45;0.70;;;;;;;15.79;61.03;100380.03;5441195;32;34300;-69
2023/08/08 00:14:30;;;;;;;1.25;0.80;;;;;;;15.84;60.84;100371.78;5446287;32;34090;-69
2023/08/08 00:17:32;;;;;;;0.80;0.80;;;;;;;15.61;61.42;100387.25;5422027;32;33924;-69
2023/08/08 00:20:34;;;;;;;1.30;0.60;;;;;;;15.94;60.38;100384.38;5442927;32;34978;-69
2023/08/08 00:23:36;;;;;;;1.65;0.70;;;;;;;15.95;60.02;100388.72;5443894;32;35097;-69
2023/08/08 00:26:39;;;;;;;0.97;0.70;;;;;;;15.89;60.50;100386.44;5441021;32;34815;-69
2023/08/08 00:29:41;;;;;;;0.98;0.70;;;;;;;16.18;59.61;100391.78;5431986;32;34679;-71
2023/08/08 00:32:43;;;;;;;2.40;0.83;;;;;;;15.74;61.11;100394.50;5439985;32;34735;-69
2023/08/08 00:35:45;;;;;;;0.70;0.70;;;;;;;16.16;60.08;100399.78;5445602;32;34385;-69
2023/08/08 00:38:48;;;;;;;1.53;0.80;;;;;;;16.52;58.78;100398.44;5440590;32;35447;-68
2023/08/08 00:41:53;;;;;;;0.80;0.77;;;;;;;15.88;59.83;100389.19;5421219;32;34530;-71
2023/08/08 00:45:01;;;;;;;0.90;0.70;;;;;;;15.93;59.72;100405.69;5444410;32;34692;-69
2023/08/08 00:48:04;;;;;;;1.00;0.73;;;;;;;16.03;59.75;100406.81;5440048;32;34632;-68
2023/08/08 00:51:06;;;;;;;2.67;0.60;;;;;;;16.16;59.27;100410.41;5444477;32;33975;-71
2023/08/08 00:54:08;;;;;;;1.73;0.90;;;;;;;16.41;58.84;100403.56;5441107;32;34557;-69
2023/08/08 00:57:11;;;;;;;1.25;1.00;;;;;;;16.46;58.30;100409.44;5430950;32;35550;-68
2023/08/08 01:00:14;;;;;;;0.75;0.68;;;;;;;16.12;59.29;100416.87;5441854;32;34740;-69
2023/08/08 01:03:16;;;;;;;0.80;0.70;;;;;;;16.11;59.04;100423.13;5440513;32;34775;-71
2023/08/08 01:06:46;;;;;;;4.60;1.23;;;;;;;15.85;59.98;100415.91;5445073;32;34838;-68
2023/08/08 01:09:54;;;;;;;1.40;0.80;;;;;;;16.30;59.03;100417.53;5441751;32;34203;-69
2023/08/08 01:13:02;;;;;;;3.27;1.07;;;;;;;15.64;60.78;100415.38;5443807;32;34484;-69
2023/08/08 01:16:06;;;;;;;0.87;0.73;;;;;;;16.12;59.73;100427.47;5426363;32;34883;-71
2023/08/08 01:19:11;;;;;;;1.83;0.90;;;;;;;16.01;59.83;100424.63;5425211;32;33982;-69
2023/08/08 01:22:25;;;;;;;1.37;0.87;;;;;;;16.17;59.24;100422.75;5444410;32;34907;-70
2023/08/08 01:25:27;;;;;;;2.50;1.12;;;;;;;15.90;59.78;100421.75;5440587;32;34545;-69
2023/08/08 01:28:29;;;;;;;2.62;0.80;;;;;;;15.75;60.59;100415.59;5430489;32;34670;-71
2023/08/08 01:31:31;;;;;;;2.90;0.83;;;;;;;16.10;59.39;100428.50;5439432;32;35475;-70
2023/08/08 01:34:34;;;;;;;1.97;1.10;;;;;;;16.05;59.90;100420.00;5429035;32;34169;-69
2023/08/08 01:37:42;;;;;;;2.07;0.90;;;;;;;15.67;60.83;100418.69;5426961;32;35519;-69
2023/08/08 01:40:45;;;;;;;0.80;0.80;;;;;;;15.85;60.53;100421.19;5424736;32;35206;-70
2023/08/08 01:43:48;;;;;;;1.25;0.80;;;;;;;15.75;60.58;100410.28;5427809;32;35145;-70
2023/08/08 01:46:51;;;;;;;1.73;1.02;;;;;;;15.82;61.13;100413.41;5426075;32;34101;-70
2023/08/08 01:49:53;;;;;;;1.42;1.10;;;;;;;15.56;61.89;100414.94;5443989;32;35072;-71
2023/08/08 01:52:56;;;;;;;2.37;1.03;;;;;;;15.38;62.42;100422.16;5439926;32;34839;-68
2023/08/08 01:55:58;;;;;;;2.70;1.10;;;;;;;15.94;61.27;100420.63;5442123;32;34865;-69
2023/08/08 01:59:00;;;;;;;1.50;0.90;;;;;;;15.64;61.63;100425.97;5430103;32;35805;-72
2023/08/08 02:02:06;;;;;;;2.17;1.10;;;;;;;15.38;62.69;100422.16;5426179;32;34682;-70
2023/08/08 02:05:08;;;;;;;1.87;1.00;;;;;;;15.91;61.47;100419.03;5444440;32;35268;-69
2023/08/08 02:08:11;;;;;;;1.57;1.27;;;;;;;15.61;62.12;100424.34;5439119;32;34218;-71
2023/08/08 02:11:13;;;;;;;1.35;1.05;;;;;;;16.01;60.99;100434.38;5444355;32;35260;-71
2023/08/08 02:14:15;;;;;;;1.50;0.90;;;;;;;15.81;61.90;100430.28;5426234;32;34200;-71
2023/08/08 02:17:18;;;;;;;4.17;1.03;;;;;;;15.66;62.29;100432.06;5439819;32;34683;-69
2023/08/08 02:20:20;;;;;;;2.83;1.00;;;;;;;15.95;61.28;100438.25;5444939;32;34220;-71
2023/08/08 02:23:22;;;;;;;3.08;1.10;;;;;;;15.48;62.67;100438.41;5424145;32;34846;-70
2023/08/08 02:26:25;;;;;;;4.43;1.30;;;;;;;15.60;63.20;100443.81;5429534;32;34886;-70
2023/08/08 02:29:27;;;;;;;3.55;1.20;;;;;;;15.13;65.14;100451.84;5439451;32;34371;-71
2023/08/08 02:32:29;;;;;;;2.93;1.30;;;;;;;15.88;62.70;100442.22;5443037;32;34123;-72
2023/08/08 02:35:31;;;;;;;2.03;1.27;;;;;;;15.51;64.02;100459.38;5440666;32;35160;-70
2023/08/08 02:38:33;;;;;;;2.20;1.20;;;;;;;15.55;63.13;100455.62;5439650;32;34709;-68
2023/08/08 02:41:36;;;;;;;3.43;1.07;;;;;;;14.86;65.38;100451.63;5439322;32;34601;-71
2023/08/08 02:44:38;;;;;;;1.87;1.10;;;;;;;15.23;64.27;100449.56;5438600;32;34057;-72
2023/08/08 02:47:40;;;;;;;2.27;1.17;;;;;;;15.23;65.03;100446.91;5427321;32;34119;-71
2023/08/08 02:50:42;;;;;;;3.00;1.17;;;;;;;15.01;66.00;100442.84;5439889;32;34593;-71
2023/08/08 02:53:44;;;;;;;2.20;1.20;;;;;;;15.08;65.55;100453.94;5443357;32;35533;-71
2023/08/08 02:56:47;;;;;;;1.70;1.20;;;;;;;15.37;63.89;100465.50;5439642;32;34929;-72
2023/08/08 02:59:49;;;;;;;2.20;1.00;;;;;;;15.59;63.63;100451.88;5440216;32;34941;-69
2023/08/08 03:02:51;;;;;;;1.90;1.37;;;;;;;15.51;63.77;100454.94;5441842;32;34289;-69
2023/08/08 03:05:55;;;;;;;3.70;1.67;;;;;;;14.87;65.70;100467.41;5439604;32;35378;-69
2023/08/08 03:08:58;;;;;;;3.70;1.43;;;;;;;15.60;64.00;100458.88;5443882;32;35387;-69
2023/08/08 03:12:00;;;;;;;4.43;1.20;;;;;;;16.14;61.75;100465.34;5439358;32;34115;-71
2023/08/08 03:15:03;;;;;;;2.35;1.17;;;;;;;16.46;60.74;100463.34;5416950;32;35237;-69
2023/08/08 03:18:05;;;;;;;1.48;1.20;;;;;;;15.58;63.11;100456.28;5439304;32;34483;-71
2023/08/08 03:21:07;;;;;;;2.90;1.05;;;;;;;15.45;63.40;100461.44;5439317;32;34509;-72
2023/08/08 03:24:10;;;;;;;3.90;1.20;;;;;;;15.00;65.71;100464.94;5443597;32;35306;-69
2023/08/08 03:27:12;;;;;;;2.73;1.30;;;;;;;15.35;64.70;100470.03;5438734;32;34666;-68
2023/08/08 03:30:14;;;;;;;3.20;1.20;;;;;;;15.60;63.40;100485.38;5443860;32;35132;-71
2023/08/08 03:33:16;;;;;;;2.23;1.20;;;;;;;15.35;63.50;100480.63;5438152;32;34100;-72
2023/08/08 03:36:18;;;;;;;2.30;1.03;;;;;;;15.43;64.03;100488.97;5442599;32;34610;-69
2023/08/08 03:39:21;;;;;;;1.73;1.13;;;;;;;15.55;63.41;100490.06;5439496;32;34936;-72
2023/08/08 03:42:23;;;;;;;3.93;1.50;;;;;;;15.57;63.50;100494.31;5435132;32;34201;-72
2023/08/08 03:45:25;;;;;;;2.35;1.25;;;;;;;15.47;63.28;100495.81;5442246;32;34268;-72
2023/08/08 03:48:27;;;;;;;2.77;1.30;;;;;;;16.32;60.56;100510.25;5437420;32;34319;-71
2023/08/08 03:51:30;;;;;;;3.67;1.13;;;;;;;15.76;62.18;100515.34;5442743;32;34517;-72
2023/08/08 03:54:32;;;;;;;2.08;1.25;;;;;;;15.31;63.91;100521.44;5439823;32;34083;-69
2023/08/08 03:57:34;;;;;;;5.40;1.87;;;;;;;15.80;62.57;100522.16;5440997;32;34657;-74
2023/08/08 04:00:39;;;;;;;2.47;1.10;;;;;;;16.05;61.45;100528.69;5443376;32;35563;-72
2023/08/08 04:03:41;;;;;;;1.53;1.27;;;;;;;15.90;61.52;100528.63;5440816;32;35069;-72
2023/08/08 04:06:43;;;;;;;4.47;2.47;;;;;;;15.43;63.43;100536.66;5445445;32;34585;-70
2023/08/08 04:09:45;;;;;;;3.67;1.30;;;;;;;15.31;64.03;100540.00;5416868;32;35766;-71
2023/08/08 04:12:48;;;;;;;4.10;2.00;;;;;;;15.28;63.79;100542.81;5444844;32;34655;-69
2023/08/08 04:15:51;;;;;;;2.33;1.23;;;;;;;16.01;61.82;100545.72;5441982;32;35264;-72
2023/08/08 04:18:53;;;;;;;3.77;1.40;;;;;;;15.67;62.24;100551.19;5442575;32;35284;-69
2023/08/08 04:21:56;;;;;;;2.83;1.33;;;;;;;16.13;61.57;100553.78;5442269;32;34889;-68
2023/08/08 04:24:58;;;;;;;5.55;1.60;;;;;;;15.38;62.94;100552.78;5441144;32;34657;-69
2023/08/08 04:28:01;;;;;;;4.07;1.48;;;;;;;15.50;63.39;100559.19;5444434;32;34753;-69
2023/08/08 04:31:03;;;;;;;4.83;1.73;;;;;;;15.54;62.77;100565.19;5440288;32;35514;-72
2023/08/08 04:34:05;;;;;;;3.07;1.57;;;;;;;15.36;63.48;100567.06;5442309;32;34633;-72
2023/08/08 04:37:07;;;;;;;11.77;6.50;;;;;;;15.80;62.31;100561.06;5436236;32;35287;-69
2023/08/08 04:40:10;;;;;;;3.53;1.80;;;;;;;16.37;60.07;100562.09;5442147;32;34400;-73
2023/08/08 04:43:12;;;;;;;5.15;2.20;;;;;;;16.32;60.36;100566.81;5430321;32;34624;-71
2023/08/08 04:46:14;;;;;;;4.20;1.70;;;;;;;16.47;59.85;100563.22;5439820;32;34140;-71
2023/08/08 04:49:16;;;;;;;4.60;1.73;;;;;;;16.23;60.40;100564.72;5431740;32;34108;-69
2023/08/08 04:52:18;;;;;;;6.45;2.92;;;;;;;16.97;58.74;100564.59;5411054;32;35006;-69
2023/08/08 04:55:21;;;;;;;6.43;3.00;;;;;;;16.69;59.40;100573.38;5444924;32;34247;-69
2023/08/08 04:58:23;;;;;;;8.23;3.72;;;;;;;17.47;57.30;100564.97;5441776;32;34653;-71
2023/08/08 05:01:25;;;;;;;5.18;1.95;;;;;;;17.27;57.44;100571.56;5442065;32;34548;-69
2023/08/08 05:04:27;;;;;;;6.90;1.70;;;;;;;16.76;58.84;100569.44;5444245;32;34735;-71
2023/08/08 05:07:29;;;;;;;7.00;1.70;;;;;;;17.84;55.25;100574.09;5441275;32;34316;-70
2023/08/08 05:10:32;;;;;;;5.75;2.00;;;;;;;17.18;57.18;100569.47;5443727;32;34236;-72
2023/08/08 05:13:34;;;;;;;6.32;1.80;;;;;;;17.39;56.74;100567.25;5427477;32;35272;-69
2023/08/08 05:16:36;;;;;;;4.72;1.90;;;;;;;18.21;53.82;100560.94;5444037;32;35276;-69
2023/08/08 05:19:38;;;;;;;4.62;1.62;;;;;;;16.90;57.09;100567.72;5442385;32;35020;-70
2023/08/08 05:22:41;;;;;;;3.40;1.55;;;;;;;18.32;53.31;100559.25;5442687;32;34908;-71
2023/08/08 05:25:43;;;;;;;5.20;1.42;;;;;;;19.02;51.37;100558.84;5443976;32;35771;-71
2023/08/08 05:28:45;;;;;;;3.95;1.58;;;;;;;18.52;51.80;100573.00;5441038;32;34161;-72
2023/08/08 05:31:47;;;;;;;4.97;1.42;;;;;;;19.74;49.09;100570.44;5443502;32;34174;-72
2023/08/08 05:34:51;;;;;;;2.85;1.42;;;;;;;20.12;47.12;100566.72;5440927;32;34693;-71
2023/08/08 05:37:53;;;;;;;5.17;1.97;;;;;;;19.81;47.97;100572.66;5428284;32;35164;-72
2023/08/08 05:40:55;;;;;;;2.87;1.62;;;;;;;20.26;46.93;100574.50;5436539;32;34727;-70
2023/08/08 05:43:57;;;;;;;5.28;1.65;;;;;;;20.33;47.31;100579.37;5422503;32;35766;-86
2023/08/08 05:47:00;;;;;;;;;;;;;;;19.77;47.44;100580.03;5427066;32;35999;-81
2023/08/08 05:50:02;;;;;;;5.60;1.90;;;;;;;20.05;46.45;100578.81;5380728;32;34107;-77
2023/08/08 05:53:05;;;;;;;4.78;1.73;;;;;;;20.07;46.91;100574.22;5377438;32;33970;-77
2023/08/08 05:56:08;;;;;;;2.72;1.40;;;;;;;21.12;44.60;100578.50;5378768;32;34153;-76
2023/08/08 05:59:11;;;;;;;3.97;1.60;;;;;;;21.37;43.63;100582.75;5393663;32;34036;-72
2023/08/08 06:02:13;;;;;;;4.37;1.55;;;;;;;20.90;44.46;100589.22;5390937;32;35522;-74
2023/08/08 06:05:21;;;;;;;3.00;1.73;;;;;;;21.21;43.85;100592.97;5389756;32;35744;-76
2023/08/08 06:08:24;;;;;;;5.50;1.90;;;;;;;21.78;42.45;100586.56;5374645;32;35176;-79
2023/08/08 06:11:26;;;;;;;9.73;3.08;;;;;;;22.41;41.61;100588.34;5377021;32;35195;-69
2023/08/08 06:14:30;;;;;;;9.55;2.22;;;;;;;21.93;42.09;100584.41;5390154;32;34221;-72
2023/08/08 06:17:35;;;;;;;4.10;1.40;;;;;;;23.51;39.50;100588.56;5376443;32;35572;-74
2023/08/08 06:20:38;;;;;;;;;;;;;;;23.01;40.01;100593.91;5388584;32;34097;-80
2023/08/08 06:23:40;;;;;;;4.53;1.62;;;;;;;24.27;37.88;100588.75;5368433;32;35703;-76
2023/08/08 06:26:45;;;;;;;5.78;2.00;;;;;;;23.08;39.07;100597.75;5361840;32;34252;-74
2023/08/08 06:29:47;;;;;;;;;;;;;;;23.62;38.06;100596.50;5394274;32;36281;-75
2023/08/08 06:32:49;;;;;;;3.70;1.95;;;;;;;22.49;40.62;100598.41;5387285;32;35155;-71
2023/08/08 06:35:52;;;;;;;3.03;1.45;;;;;;;24.67;36.98;100591.25;5384500;32;34160;-75
2023/08/08 06:38:54;;;;;;;3.65;1.58;;;;;;;25.31;35.10;100600.34;5378501;32;34986;-74
2023/08/08 06:41:57;;;;;;;3.75;1.67;;;;;;;24.89;35.48;100591.88;5385434;32;34390;-78
2023/08/08 06:45:02;;;;;;;3.00;1.48;;;;;;;22.03;40.53;100598.75;5392272;32;34422;-77
2023/08/08 06:48:04;;;;;;;3.15;1.62;;;;;;;22.59;40.30;100609.16;5385957;32;34210;-77
2023/08/08 06:51:07;;;;;;;4.55;1.80;;;;;;;23.60;38.24;100608.34;5365586;32;33996;-76
2023/08/08 06:54:09;;;;;;;3.03;1.42;;;;;;;22.81;39.78;100611.69;5391732;32;35588;-71
2023/08/08 06:57:11;;;;;;;6.95;2.15;;;;;;;23.11;38.41;100618.91;5386013;32;34368;-72
2023/08/08 07:00:16;;;;;;;5.82;1.92;;;;;;;22.51;40.01;100623.22;5387601;32;34435;-74
2023/08/08 07:03:18;;;;;;;5.47;1.50;;;;;;;22.58;40.45;100628.91;5373217;32;34102;-77
2023/08/08 07:06:21;;;;;;;5.62;1.92;;;;;;;21.03;43.08;100622.84;5375032;32;34113;-72
2023/08/08 07:09:25;;;;;;;4.82;1.60;;;;;;;22.75;39.83;100620.28;5374109;32;35380;-72
2023/08/08 07:12:28;;;;;;;5.20;1.70;;;;;;;23.18;38.76;100614.69;5392292;32;34561;-77
2023/08/08 07:15:31;;;;;;;8.45;1.62;;;;;;;23.91;37.58;100606.44;5369313;32;35009;-71
2023/08/08 07:18:34;;;;;;;5.28;1.85;;;;;;;24.41;36.20;100598.22;5396020;32;34850;-92
2023/08/08 07:21:37;;;;;;;3.40;1.80;;;;;;;24.12;37.04;100606.28;5354181;32;36078;-82
2023/08/08 07:24:39;;;;;;;3.10;1.48;;;;;;;24.13;36.98;100611.50;5361141;32;33893;-71
2023/08/08 07:27:42;;;;;;;3.62;1.92;;;;;;;24.19;36.04;100610.94;5391274;32;34190;-76
2023/08/08 07:30:47;;;;;;;2.78;1.50;;;;;;;24.07;36.29;100614.75;5393007;32;35173;-82
2023/08/08 07:33:49;;;;;;;5.28;1.67;;;;;;;22.79;37.73;100615.47;5404946;32;34623;-81
2023/08/08 07:36:51;;;;;;;6.05;2.55;;;;;;;23.15;38.04;100619.50;5395961;32;34562;-69
2023/08/08 07:39:54;;;;;;;4.43;1.65;;;;;;;24.01;36.33;100623.37;5396224;32;34040;-75
2023/08/08 07:42:57;;;;;;;4.50;2.00;;;;;;;23.80;36.42;100617.28;5381642;32;34341;-71
2023/08/08 07:45:59;;;;;;;;;;;;;;;23.63;36.76;100627.69;5383569;32;33843;-66
2023/08/08 07:49:04;;;;;;;3.05;1.60;;;;;;;23.21;37.59;100633.22;5401223;32;35483;-70
2023/08/08 07:52:07;;;;;;;3.85;1.62;;;;;;;24.43;35.67;100623.97;5383081;32;35760;-75
2023/08/08 07:55:09;;;;;;;3.50;1.95;;;;;;;24.85;34.06;100626.25;5396019;32;34075;-65
2023/08/08 07:58:12;;;;;;;;;;;;;;;24.23;35.05;100628.47;5395229;32;34187;-80
2023/08/08 08:01:14;;;;;;;6.45;2.15;;;;;;;23.59;36.17;100628.94;5390602;32;34109;-69
2023/08/08 08:04:17;;;;;;;3.50;1.40;;;;;;;24.20;34.51;100622.53;5390137;32;35301;-83
2023/08/08 08:07:20;;;;;;;4.28;1.50;;;;;;;24.50;33.32;100625.09;5356484;32;34328;-82
2023/08/08 08:10:22;;;;;;;4.05;1.30;;;;;;;24.21;34.23;100622.38;5397518;32;33892;-81
2023/08/08 08:13:25;;;;;;;3.72;1.50;;;;;;;24.88;32.25;100614.38;5370218;32;33940;-70
2023/08/08 08:16:27;;;;;;;;;;;;;;;26.28;30.42;100619.38;5394210;32;34710;-74
2023/08/08 08:19:29;;;;;;;5.12;1.65;;;;;;;25.45;32.05;100624.06;5392588;32;34272;-72
2023/08/08 08:22:33;;;;;;;5.28;1.65;;;;;;;26.58;30.03;100617.28;5382348;32;35158;-75
2023/08/08 08:25:35;;;;;;;5.18;1.85;;;;;;;25.64;32.18;100620.41;5393079;32;34831;-67
2023/08/08 08:28:39;;;;;;;3.33;1.50;;;;;;;25.76;31.67;100611.16;5393689;32;33202;-71
2023/08/08 08:31:42;;;;;;;5.47;1.73;;;;;;;26.49;30.41;100615.53;5380604;32;34643;-80
2023/08/08 08:34:44;;;;;;;6.55;1.70;;;;;;;26.23;31.05;100619.00;5368653;32;36798;-69
2023/08/08 08:37:46;;;;;;;5.07;1.60;;;;;;;26.73;30.80;100621.94;5383667;32;34000;-73
2023/08/08 08:40:50;;;;;;;3.78;1.50;;;;;;;27.39;28.73;100622.31;5392706;32;34207;-75
2023/08/08 08:43:53;;;;;;;5.47;2.03;;;;;;;28.01;26.91;100612.00;5387815;32;35536;-73
2023/08/08 08:46:58;;;;;;;7.82;1.95;;;;;;;26.55;29.22;100623.00;5367012;32;35550;-81
2023/08/08 08:50:03;;;;;;;6.05;1.75;;;;;;;26.13;29.27;100629.00;5391823;32;35105;-71
2023/08/08 08:53:05;;;;;;;6.50;1.42;;;;;;;26.32;28.73;100620.75;5376076;32;34042;-70
2023/08/08 08:56:08;;;;;;;2.90;1.33;;;;;;;25.06;31.12;100624.25;5395580;32;36574;-77
2023/08/08 08:59:10;;;;;;;4.78;1.85;;;;;;;25.58;30.08;100626.41;5350779;32;34856;-78
2023/08/08 09:02:13;;;;;;;4.43;1.40;;;;;;;25.03;30.83;100624.50;5378109;32;35090;-73
2023/08/08 09:05:16;;;;;;;6.43;1.60;;;;;;;26.18;29.56;100615.91;5384411;32;35093;-87
2023/08/08 09:08:19;;;;;;;2.87;1.45;;;;;;;25.58;30.77;100627.25;5390853;32;34108;-76
2023/08/08 09:11:21;;;;;;;6.97;2.08;;;;;;;24.20;33.11;100636.81;5381956;32;34963;-76
2023/08/08 09:14:24;;;;;;;;;;;;;;;24.59;32.87;100634.09;5400382;32;34734;-76
2023/08/08 09:17:27;;;;;;;4.00;1.65;;;;;;;24.46;33.05;100631.72;5365346;32;34727;-77
2023/08/08 09:20:49;;;;;;;1.70;1.35;;;;;;;25.33;31.65;100634.19;5375802;32;35135;-71
2023/08/08 09:23:51;;;;;;;3.33;1.80;;;;;;;25.30;31.73;100639.84;5383932;32;33980;-69
2023/08/08 09:26:54;;;;;;;;;;;;;;;23.53;34.42;100650.97;5390330;32;34123;-74
2023/08/08 09:29:56;;;;;;;4.53;1.95;;;;;;;23.34;34.83;100649.06;5385956;32;35400;-70
2023/08/08 09:33:00;;;;;;;5.80;1.80;;;;;;;25.53;31.83;100632.22;5395468;32;35162;-80
2023/08/08 09:36:03;;;;;;;4.60;1.95;;;;;;;26.29;30.70;100629.16;5384563;32;35410;-74
2023/08/08 09:39:05;;;;;;;4.72;1.80;;;;;;;27.03;29.76;100640.47;5377969;32;35104;-85
2023/08/08 09:42:11;;;;;;;4.60;1.60;;;;;;;26.62;30.37;100626.75;5389396;32;34160;-85
2023/08/08 09:45:13;;;;;;;4.72;1.60;;;;;;;28.09;28.38;100632.78;5398305;32;34114;-80
2023/08/08 09:48:16;;;;;;;5.35;2.12;;;;;;;26.66;30.16;100630.78;5391406;32;36026;-76
2023/08/08 09:51:18;;;;;;;3.90;1.60;;;;;;;26.73;30.19;100631.88;5396318;32;34490;-76
2023/08/08 09:54:21;;;;;;;5.03;1.73;;;;;;;28.75;27.44;100626.34;5396389;32;35145;-79
2023/08/08 09:57:24;;;;;;;4.45;1.95;;;;;;;27.57;26.42;100628.44;5389858;32;33943;-74
2023/08/08 10:00:27;;;;;;;3.90;1.90;;;;;;;27.10;28.24;100625.34;5384919;32;35951;-89
2023/08/08 10:03:31;;;;;;;5.22;1.77;;;;;;;26.37;28.53;100631.06;5375765;32;34228;-69
2023/08/08 10:06:33;;;;;;;2.22;1.42;;;;;;;26.62;27.28;100635.66;5383648;32;35289;-78
2023/08/08 10:09:37;;;;;;;4.47;1.45;;;;;;;26.71;28.07;100626.63;5372842;32;34617;-86
2023/08/08 10:12:41;;;;;;;3.45;1.50;;;;;;;27.15;26.84;100629.28;5383874;32;34249;-71
2023/08/08 10:15:44;;;;;;;5.37;1.77;;;;;;;28.18;26.03;100629.06;5393049;32;34169;-74
2023/08/08 10:19:06;;;;;;;5.47;1.58;;;;;;;26.87;28.06;100625.91;5393295;32;33870;-72
2023/08/08 10:22:11;;;;;;;5.20;1.80;;;;;;;28.07;26.62;100622.97;5391703;32;35522;-74
2023/08/08 10:25:23;;;;;;;3.92;1.52;;;;;;;27.46;26.82;100624.19;5387665;32;34931;-74
2023/08/08 10:28:26;;;;;;;5.30;1.67;;;;;;;27.91;26.35;100617.56;5375092;32;36471;-75
2023/08/08 10:31:34;;;;;;;3.05;1.40;;;;;;;27.53;26.96;100609.00;5371907;32;35231;-87
2023/08/08 10:34:41;;;;;;;4.90;1.80;;;;;;;28.28;25.90;100597.31;5390917;32;35879;-70
2023/08/08 10:38:08;;;;;;;5.43;1.83;;;;;;;28.16;26.49;100599.53;5368011;32;34503;-69
2023/08/08 10:41:15;;;;;;;3.62;1.67;;;;;;;29.38;25.72;100593.88;5371970;32;35172;-74
2023/08/08 10:44:24;;;;;;;5.87;1.77;;;;;;;27.44;27.53;100598.38;5394857;32;34208;-74
2023/08/08 10:47:30;;;;;;;6.18;1.90;;;;;;;27.95;27.03;100591.03;5374688;32;36003;-69
2023/08/08 10:50:38;;;;;;;3.75;1.87;;;;;;;26.10;29.79;100595.16;5394131;32;35289;-72
2023/08/08 10:53:43;;;;;;;4.18;1.60;;;;;;;28.56;26.32;100590.56;5378260;32;34342;-71
2023/08/08 10:56:53;;;;;;;4.90;1.90;;;;;;;27.13;28.04;100592.69;5378743;32;34061;-69
2023/08/08 10:59:56;;;;;;;3.60;1.62;;;;;;;25.77;29.71;100593.16;5375074;32;34279;-73
2023/08/08 11:02:59;;;;;;;5.03;1.50;;;;;;;25.52;29.74;100584.81;5388773;32;33752;-69
2023/08/08 11:06:03;;;;;;;3.28;1.65;;;;;;;26.04;29.00;100592.25;5381250;32;34918;-71
2023/08/08 11:09:06;;;;;;;3.97;2.03;;;;;;;25.45;29.48;100590.94;5366106;32;35796;-70
2023/08/08 11:12:15;;;;;;;3.15;1.55;;;;;;;25.28;29.70;100596.13;5381410;32;32581;-66
2023/08/08 11:15:20;;;;;;;3.20;1.60;;;;;;;26.23;28.87;100583.97;5381553;32;33992;-75
2023/08/08 11:18:22;;;;;;;3.75;1.77;;;;;;;26.93;28.20;100601.00;5387157;32;34420;-74
2023/08/08 11:21:25;;;;;;;2.50;1.75;;;;;;;26.39;28.90;100588.63;5384103;32;34086;-71
2023/08/08 11:24:37;;;;;;;4.37;2.00;;;;;;;27.87;27.33;100582.94;5386974;32;35800;-75
2023/08/08 11:27:42;;;;;;;;;;;;;;;27.32;28.17;100597.81;5394657;32;34811;-72
2023/08/08 11:30:45;;;;;;;7.05;1.75;;;;;;;27.67;27.36;100590.47;5394126;32;35659;-68
2023/08/08 11:33:48;;;;;;;3.83;1.87;;;;;;;27.10;28.40;100596.53;5394683;32;34179;-74
2023/08/08 11:36:51;;;;;;;5.37;2.58;;;;;;;29.71;25.61;100584.75;5372625;32;35292;-72
2023/08/08 11:39:54;;;;;;;4.30;1.90;;;;;;;31.03;23.58;100581.50;5379896;32;35100;-80
2023/08/08 11:42:57;;;;;;;4.93;1.75;;;;;;;29.83;25.06;100576.03;5383383;32;33672;-65
2023/08/08 11:46:03;;;;;;;3.50;1.60;;;;;;;30.74;23.62;100575.06;5358124;32;33982;-88
2023/08/08 11:49:06;;;;;;;4.35;1.65;;;;;;;31.07;22.89;100576.56;5375917;32;34061;-64
2023/08/08 11:52:09;;;;;;;5.30;1.50;;;;;;;29.06;25.29;100575.06;5383710;32;35646;-77
2023/08/08 11:55:13;;;;;;;3.42;1.80;;;;;;;32.28;21.23;100563.06;5393066;32;35547;-73
2023/08/08 11:58:16;;;;;;;3.47;1.67;;;;;;;31.75;21.32;100565.28;5362657;32;34169;-77
2023/08/08 12:01:25;;;;;;;4.75;3.12;;;;;;;29.51;24.58;100568.97;5394110;32;35155;-71
2023/08/08 12:04:28;;;;;;;4.20;1.67;;;;;;;31.00;22.23;100560.19;5395211;32;35517;-65
2023/08/08 12:07:33;;;;;;;4.20;2.05;;;;;;;29.61;24.42;100552.47;5369121;32;34113;-78
2023/08/08 12:10:35;;;;;;;5.37;2.12;;;;;;;29.46;24.84;100557.78;5382479;32;33615;-70
2023/08/08 12:13:39;;;;;;;7.62;4.82;;;;;;;30.94;21.89;100552.78;5377869;32;35216;-70
2023/08/08 12:16:43;;;;;;;2.37;1.55;;;;;;;29.56;22.90;100557.56;5379806;32;33982;-68
2023/08/08 12:19:47;;;;;;;2.97;1.50;;;;;;;30.91;21.68;100550.44;5396897;32;34070;-73
2023/08/08 12:22:49;;;;;;;5.87;1.90;;;;;;;32.60;18.39;100537.16;5374833;32;34318;-74
2023/08/08 12:25:51;;;;;;;3.03;1.40;;;;;;;33.73;17.86;100537.63;5394581;32;34238;-72
2023/08/08 12:28:54;;;;;;;3.72;1.65;;;;;;;32.23;18.92;100534.78;5394724;32;33334;-71
2023/08/08 12:31:57;;;;;;;2.80;1.50;;;;;;;31.48;20.70;100538.84;5395639;32;35318;-73
2023/08/08 12:34:59;;;;;;;2.17;1.42;;;;;;;34.53;17.70;100532.22;5395583;32;35299;-74
2023/08/08 12:38:03;;;;;;;3.47;1.60;;;;;;;29.70;22.13;100540.56;5387201;32;35746;-71
2023/08/08 12:41:06;;;;;;;4.87;3.20;;;;;;;27.20;25.50;100550.56;5395150;32;34437;-72
2023/08/08 12:44:08;;;;;;;2.20;1.80;;;;;;;27.50;25.75;100535.59;5371567;32;34791;-80
2023/08/08 12:47:15;;;;;;;3.40;1.65;;;;;;;27.68;25.75;100538.16;5393067;32;36246;-75
2023/08/08 12:50:17;;;;;;;3.30;1.80;;;;;;;27.94;25.13;100543.44;5391099;32;34159;-67
2023/08/08 12:53:19;;;;;;;2.75;2.10;;;;;;;26.81;26.62;100539.41;5382795;32;34090;-67
2023/08/08 12:56:25;;;;;;;6.68;1.75;;;;;;;25.99;27.68;100536.13;5395935;32;35627;-67
2023/08/08 12:59:28;;;;;;;2.95;1.55;;;;;;;26.39;27.51;100534.75;5387754;32;34094;-76
2023/08/08 13:02:30;;;;;;;4.55;1.58;;;;;;;26.57;27.51;100534.72;5396765;32;33978;-71
2023/08/08 13:05:32;;;;;;;7.20;2.30;;;;;;;26.48;27.19;100528.44;5395146;32;34565;-69
2023/08/08 13:08:35;;;;;;;;;;;;;;;25.73;28.21;100529.84;5401417;32;34979;-72
2023/08/08 13:11:37;;;;;;;4.70;1.52;;;;;;;26.08;28.28;100528.97;5398286;32;35363;-73
2023/08/08 13:14:39;;;;;;;;;;;;;;;26.08;28.35;100532.53;5393357;32;34697;-67
2023/08/08 13:17:44;;;;;;;8.40;2.05;;;;;;;26.11;28.34;100534.06;5386619;32;35226;-66
2023/08/08 13:20:47;;;;;;;5.37;1.73;;;;;;;25.85;28.89;100528.63;5398235;32;34085;-70
2023/08/08 13:23:49;;;;;;;4.45;1.83;;;;;;;24.75;30.02;100545.66;5385979;32;34803;-71
2023/08/08 13:26:51;;;;;;;;;;;;;;;24.49;30.65;100544.63;5393992;32;35803;-73
2023/08/08 13:29:53;;;;;;;4.93;1.67;;;;;;;24.42;31.27;100540.84;5400800;32;34826;-69
2023/08/08 13:32:56;;;;;;;6.37;2.00;;;;;;;24.91;30.53;100550.41;5396608;32;35139;-76
2023/08/08 13:35:59;;;;;;;6.03;2.10;;;;;;;24.25;32.30;100550.44;5367711;32;32222;-77
2023/08/08 13:39:02;;;;;;;3.67;1.52;;;;;;;22.59;33.60;100572.50;5381380;32;33954;-74
2023/08/08 13:42:04;;;;;;;1.75;1.23;;;;;;;22.66;32.67;100568.31;5384321;32;34165;-73
2023/08/08 13:45:07;;;;;;;4.25;1.40;;;;;;;22.41;32.39;100571.41;5392970;32;33418;-71
2023/08/08 13:48:10;;;;;;;3.05;1.60;;;;;;;22.22;32.71;100568.59;5397963;32;35854;-72
2023/08/08 13:51:12;;;;;;;1.62;1.20;;;;;;;21.97;32.79;100565.31;5383827;32;34104;-76
2023/08/08 13:54:14;;;;;;;1.83;1.30;;;;;;;22.16;33.23;100564.66;5400614;32;35058;-76
2023/08/08 13:57:17;;;;;;;2.05;1.48;;;;;;;23.09;32.04;100559.22;5383962;32;33945;-79
2023/08/08 14:00:19;;;;;;;3.92;1.90;;;;;;;22.83;32.17;100564.16;5420507;32;35653;-79
2023/08/08 14:03:24;;;;;;;3.92;1.67;;;;;;;22.50;32.90;100565.28;5422547;32;34966;-72
2023/08/08 14:06:27;;;;;;;2.28;1.25;;;;;;;22.47;33.12;100565.53;5435682;32;34193;-78
2023/08/08 14:09:29;;;;;;;3.05;1.40;;;;;;;22.89;32.75;100565.50;5407269;32;34409;-73
2023/08/08 14:12:32;;;;;;;2.12;1.30;;;;;;;23.36;32.48;100565.78;5433964;32;156650;-72
2023/08/08 14:15:34;;;;;;;4.22;1.55;;;;;;;22.91;33.28;100564.38;5440131;32;34752;-74